Time;durP1;ratioP1;P1;durP2;ratioP2;P2;SDS_P1;SDS_P2;PMS_P1;PMS_P2;Temp;Humidity;BMP_temperature;BMP_pressure;BME280_temperature;BME280_humidity;BME280_pressure;Samples;Min_cycle;Max_cycle;Signal;HPM_P1;HPM_P2
2022/04/06 00:00:08;;;;;;;5.68;3.08;;;8.40;99.90;;;;;;5004432;28;20080;-92
2022/04/06 00:02:35;;;;;;;2.63;2.42;;;8.40;99.90;;;;;;4985858;28;20050;-92
2022/04/06 00:05:00;;;;;;;2.75;2.33;;;8.40;99.90;;;;;;5004467;28;20088;-92
2022/04/06 00:07:27;;;;;;;7.82;3.92;;;8.40;99.90;;;;;;5003369;28;20073;-92
2022/04/06 00:09:52;;;;;;;3.65;2.95;;;8.40;99.90;;;;;;4986536;28;20305;-92
2022/04/06 00:12:18;;;;;;;3.38;2.85;;;8.40;99.90;;;;;;5003538;28;20057;-92
2022/04/06 00:14:43;;;;;;;3.03;2.72;;;8.50;99.90;;;;;;5003679;28;20038;-92
2022/04/06 00:17:10;;;;;;;6.68;2.20;;;8.40;99.90;;;;;;4985234;28;20045;-93
2022/04/06 00:19:36;;;;;;;5.63;3.75;;;8.40;99.90;;;;;;5003813;28;20041;-90
2022/04/06 00:22:03;;;;;;;3.13;2.33;;;8.50;99.90;;;;;;5004237;28;20045;-92
2022/04/06 00:24:29;;;;;;;5.32;3.95;;;8.50;99.90;;;;;;5004030;28;20054;-93
2022/04/06 00:26:54;;;;;;;2.60;2.38;;;8.40;99.90;;;;;;5002602;28;20828;-93
2022/04/06 00:29:20;;;;;;;6.00;2.47;;;8.50;99.90;;;;;;5003785;28;20046;-92
2022/04/06 00:31:45;;;;;;;5.97;3.45;;;8.50;99.90;;;;;;5002760;28;20046;-92
2022/04/06 00:34:11;;;;;;;3.13;2.63;;;8.50;99.90;;;;;;5003475;28;20104;-91
2022/04/06 00:36:37;;;;;;;7.47;3.17;;;8.50;99.90;;;;;;5003905;28;20053;-93
2022/04/06 00:39:03;;;;;;;2.83;2.63;;;8.50;99.90;;;;;;5003557;28;20091;-93
2022/04/06 00:41:29;;;;;;;2.95;2.15;;;8.50;99.90;;;;;;5003347;28;20076;-92
2022/04/06 00:44:15;;;;;;;3.00;1.60;;;8.50;99.90;;;;;;5003483;28;20038;-91
2022/04/06 00:46:43;;;;;;;2.53;2.33;;;8.50;99.90;;;;;;5002155;28;20123;-91
2022/04/06 00:49:13;;;;;;;2.80;2.25;;;8.60;99.90;;;;;;5003869;28;20073;-92
2022/04/06 00:51:42;;;;;;;4.65;2.65;;;8.60;99.90;;;;;;5002980;28;20065;-81
2022/04/06 00:54:08;;;;;;;6.63;2.58;;;8.60;99.90;;;;;;5003251;28;20037;-92
2022/04/06 00:56:34;;;;;;;4.63;2.70;;;8.60;99.90;;;;;;5003338;28;20103;-92
2022/04/06 00:59:00;;;;;;;6.47;3.30;;;8.50;99.90;;;;;;5002950;28;20440;-91
2022/04/06 01:01:25;;;;;;;2.75;2.55;;;8.60;99.90;;;;;;5001761;28;20045;-92
2022/04/06 01:03:51;;;;;;;3.20;2.38;;;8.60;99.90;;;;;;4983386;23;20471;-91
2022/04/06 01:06:16;;;;;;;4.05;2.80;;;8.60;99.90;;;;;;4963421;28;20505;-92
2022/04/06 01:08:42;;;;;;;1.92;1.83;;;8.60;99.90;;;;;;4964609;28;20053;-93
2022/04/06 01:11:08;;;;;;;1.92;1.83;;;8.60;99.90;;;;;;4964569;28;20043;-93
2022/04/06 01:13:34;;;;;;;9.20;2.38;;;8.60;99.90;;;;;;4964189;28;20121;-92
2022/04/06 01:15:59;;;;;;;4.72;1.65;;;8.70;99.90;;;;;;4963480;28;20042;-92
2022/04/06 01:18:25;;;;;;;2.08;1.80;;;8.60;99.90;;;;;;4963882;28;20082;-92
2022/04/06 01:20:50;;;;;;;1.00;1.00;;;8.70;99.90;;;;;;4963509;28;20058;-91
2022/04/06 01:23:16;;;;;;;2.35;2.05;;;8.60;99.90;;;;;;4963567;28;20050;-92
2022/04/06 01:25:42;;;;;;;3.80;1.70;;;8.70;99.90;;;;;;4964001;28;20051;-88
2022/04/06 01:28:07;;;;;;;4.25;2.05;;;8.70;99.90;;;;;;4964380;28;20536;-91
2022/04/06 01:30:33;;;;;;;3.10;1.73;;;8.70;99.90;;;;;;4964005;28;20049;-91
2022/04/06 01:32:59;;;;;;;5.70;1.55;;;8.70;99.90;;;;;;4965335;28;20062;-91
2022/04/06 01:35:25;;;;;;;2.97;2.20;;;8.70;99.90;;;;;;4967595;28;20125;-91
2022/04/06 01:37:50;;;;;;;2.88;2.08;;;8.70;99.90;;;;;;4967940;28;20121;-79
2022/04/06 01:40:16;;;;;;;1.17;1.08;;;8.70;99.90;;;;;;4967265;28;20121;-91
2022/04/06 01:42:42;;;;;;;8.18;2.08;;;8.70;99.90;;;;;;4967387;28;20047;-91
2022/04/06 01:45:08;;;;;;;1.05;1.05;;;8.70;99.90;;;;;;4967520;28;20034;-92
2022/04/06 01:47:34;;;;;;;15.50;2.38;;;8.70;99.90;;;;;;4966019;28;20074;-92
2022/04/06 01:52:44;;;;;;;2.83;2.00;;;8.70;99.90;;;;;;4966452;28;20061;-93
2022/04/06 01:55:12;;;;;;;4.95;1.17;;;8.70;99.90;;;;;;4967348;28;20061;-93
2022/04/06 01:57:40;;;;;;;2.15;1.45;;;8.70;99.90;;;;;;4967607;28;20509;-92
2022/04/06 02:00:09;;;;;;;1.85;1.27;;;8.70;99.90;;;;;;4967866;28;20563;-92
2022/04/06 02:02:36;;;;;;;0.95;0.95;;;8.70;99.90;;;;;;4966680;28;20075;-93
2022/04/06 02:05:02;;;;;;;2.67;1.58;;;8.70;99.90;;;;;;4985440;28;20054;-90
2022/04/06 02:07:27;;;;;;;1.38;1.30;;;8.70;99.90;;;;;;4985612;28;20042;-92
2022/04/06 02:09:53;;;;;;;1.45;1.35;;;8.70;99.90;;;;;;4986411;28;20053;-91
2022/04/06 02:12:21;;;;;;;3.72;1.40;;;8.60;99.90;;;;;;4985286;28;20043;-92
2022/04/06 02:14:46;;;;;;;3.40;1.17;;;8.70;99.90;;;;;;4986328;28;20045;-92
2022/04/06 02:17:12;;;;;;;13.25;1.55;;;8.60;99.90;;;;;;4985381;28;20046;-92
2022/04/06 02:19:39;;;;;;;4.22;1.52;;;8.60;99.90;;;;;;4986931;28;20042;-91
2022/04/06 02:22:06;;;;;;;2.90;1.75;;;8.60;99.90;;;;;;4986611;28;20052;-92
2022/04/06 02:24:32;;;;;;;2.00;1.88;;;8.60;99.90;;;;;;4985901;28;20452;-90
2022/04/06 02:26:58;;;;;;;10.90;2.15;;;8.60;99.90;;;;;;4968489;28;20038;-91
2022/04/06 02:29:24;;;;;;;0.70;0.70;;;8.60;99.90;;;;;;4986019;28;20042;-91
2022/04/06 02:31:50;;;;;;;0.98;0.60;;;8.60;99.90;;;;;;4985384;28;20062;-91
2022/04/06 02:34:15;;;;;;;0.90;0.90;;;8.60;99.90;;;;;;4985633;28;20126;-91
2022/04/06 02:36:41;;;;;;;2.85;2.00;;;8.60;99.90;;;;;;4985164;28;20093;-91
2022/04/06 02:39:06;;;;;;;9.32;2.53;;;8.60;99.90;;;;;;4985866;28;20099;-91
2022/04/06 02:41:32;;;;;;;1.55;1.27;;;8.60;99.90;;;;;;4985696;28;20054;-92
2022/04/06 02:43:58;;;;;;;6.45;2.13;;;8.60;99.90;;;;;;4985103;28;20085;-91
2022/04/06 02:46:23;;;;;;;1.20;1.20;;;8.60;99.90;;;;;;4984789;28;20041;-92
2022/04/06 02:48:49;;;;;;;2.08;1.98;;;8.60;99.90;;;;;;4986094;28;20046;-91
2022/04/06 02:51:14;;;;;;;2.80;1.80;;;8.60;99.90;;;;;;4968148;28;20043;-92
2022/04/06 02:53:40;;;;;;;3.20;1.23;;;8.60;99.90;;;;;;4985943;28;20492;-91
2022/04/06 02:56:06;;;;;;;2.70;1.75;;;8.60;99.90;;;;;;4985017;28;20049;-91
2022/04/06 02:58:31;;;;;;;11.65;2.50;;;8.60;99.90;;;;;;4986082;28;20045;-92
2022/04/06 03:00:58;;;;;;;1.83;1.70;;;8.60;99.90;;;;;;4984580;28;20046;-92
2022/04/06 03:03:24;;;;;;;3.47;1.83;;;8.60;99.90;;;;;;4985023;28;20086;-92
2022/04/06 03:05:50;;;;;;;2.45;1.35;;;8.60;99.90;;;;;;4985771;28;20050;-91
2022/04/06 03:08:16;;;;;;;17.63;1.95;;;8.60;99.90;;;;;;4984962;28;20052;-92
2022/04/06 03:10:42;;;;;;;2.78;2.50;;;8.70;99.90;;;;;;4983934;28;20054;-92
2022/04/06 03:13:07;;;;;;;1.30;1.20;;;8.60;99.90;;;;;;4984601;28;20374;-92
2022/04/06 03:15:34;;;;;;;2.22;2.13;;;8.60;99.90;;;;;;4984410;28;20494;-92
2022/04/06 03:17:59;;;;;;;7.15;3.08;;;8.60;99.90;;;;;;4985395;28;20512;-91
2022/04/06 03:20:25;;;;;;;8.05;2.17;;;8.60;99.90;;;;;;4984723;28;20077;-92
2022/04/06 03:22:50;;;;;;;2.15;2.05;;;8.60;99.90;;;;;;4985201;28;20101;-92
2022/04/06 03:25:16;;;;;;;1.60;1.30;;;8.70;99.90;;;;;;4967852;28;20046;-93
2022/04/06 03:27:42;;;;;;;4.60;2.55;;;8.60;99.90;;;;;;4984654;28;20046;-91
2022/04/06 03:30:11;;;;;;;3.83;2.17;;;8.60;99.90;;;;;;4985038;28;20042;-92
2022/04/06 03:32:37;;;;;;;2.03;1.92;;;8.60;99.90;;;;;;4966819;28;20141;-90
2022/04/06 03:35:03;;;;;;;8.02;1.95;;;8.60;99.90;;;;;;4984827;28;20145;-91
2022/04/06 03:37:29;;;;;;;1.95;1.83;;;8.60;99.90;;;;;;4984475;28;20227;-90
2022/04/06 03:39:55;;;;;;;6.70;2.13;;;8.60;99.90;;;;;;4984341;28;20034;-89
2022/04/06 03:42:20;;;;;;;5.70;2.30;;;8.60;99.90;;;;;;4983943;28;20054;-90
2022/04/06 03:44:46;;;;;;;1.83;1.55;;;8.50;99.90;;;;;;4967008;28;20054;-91
2022/04/06 03:47:11;;;;;;;4.65;1.80;;;8.50;99.90;;;;;;4983610;28;20044;-90
2022/04/06 03:49:37;;;;;;;2.88;1.77;;;8.50;99.90;;;;;;4984208;28;20042;-91
2022/04/06 03:52:03;;;;;;;1.83;1.73;;;8.50;99.90;;;;;;4983138;28;20826;-91
2022/04/06 03:54:28;;;;;;;3.60;3.28;;;8.50;99.90;;;;;;4983456;28;20126;-90
2022/04/06 03:56:54;;;;;;;8.38;2.72;;;8.50;99.90;;;;;;4982654;28;20125;-90
2022/04/06 03:59:20;;;;;;;2.58;2.38;;;8.40;99.90;;;;;;4984345;28;20536;-90
2022/04/06 04:01:46;;;;;;;2.42;1.52;;;8.50;99.90;;;;;;4983215;28;20476;-92
2022/04/06 04:04:11;;;;;;;2.70;2.03;;;8.40;99.90;;;;;;4983672;28;20266;-91
2022/04/06 04:06:37;;;;;;;2.97;2.65;;;8.40;99.90;;;;;;4967279;28;20061;-90
2022/04/06 04:09:03;;;;;;;1.48;1.38;;;8.40;99.90;;;;;;4950410;28;20047;-90
2022/04/06 04:11:30;;;;;;;5.40;3.22;;;8.40;99.90;;;;;;4983830;28;20132;-90
2022/04/06 04:13:56;;;;;;;11.48;2.03;;;8.40;99.90;;;;;;4965941;28;20316;-90
2022/04/06 04:16:21;;;;;;;2.22;1.95;;;8.40;99.90;;;;;;4965378;28;20116;-90
2022/04/06 04:18:48;;;;;;;11.25;3.17;;;8.40;99.90;;;;;;4983499;28;20476;-90
2022/04/06 04:21:32;;;;;;;1.95;1.77;;;8.40;99.90;;;;;;4983599;28;20187;-90
2022/04/06 04:23:58;;;;;;;3.75;2.50;;;8.40;99.90;;;;;;4983764;28;20044;-91
2022/04/06 04:26:24;;;;;;;6.70;2.97;;;8.40;99.90;;;;;;4981734;28;20046;-89
2022/04/06 04:28:49;;;;;;;1.17;1.08;;;8.30;99.90;;;;;;4983292;28;20088;-90
2022/04/06 04:31:15;;;;;;;3.42;1.67;;;8.30;99.90;;;;;;4965014;28;20452;-89
2022/04/06 04:33:41;;;;;;;2.60;1.63;;;8.30;99.90;;;;;;4983120;28;20042;-89
2022/04/06 04:36:07;;;;;;;3.00;2.80;;;8.30;99.90;;;;;;4983740;28;20154;-90
2022/04/06 04:38:32;;;;;;;12.27;2.72;;;8.30;99.90;;;;;;4982986;28;20050;-90
2022/04/06 04:40:58;;;;;;;11.07;2.50;;;8.30;99.90;;;;;;4983426;28;20123;-89
2022/04/06 04:43:23;;;;;;;12.80;3.08;;;8.30;99.90;;;;;;4982115;28;20039;-89
2022/04/06 04:45:49;;;;;;;7.20;2.08;;;8.30;99.90;;;;;;4972402;28;20060;-89
2022/04/06 04:48:14;;;;;;;10.77;2.80;;;8.30;99.90;;;;;;4982431;28;20046;-89
2022/04/06 04:50:40;;;;;;;2.42;2.22;;;8.30;99.90;;;;;;4982808;28;20042;-89
2022/04/06 04:53:06;;;;;;;4.75;2.45;;;8.30;99.90;;;;;;4982573;28;20100;-90
2022/04/06 04:55:32;;;;;;;2.90;2.60;;;8.30;99.90;;;;;;4981985;28;20046;-90
2022/04/06 04:57:58;;;;;;;2.17;1.52;;;8.30;99.90;;;;;;4982847;28;20053;-86
2022/04/06 05:00:24;;;;;;;3.72;1.95;;;8.20;99.90;;;;;;4981668;28;20654;-89
2022/04/06 05:02:49;;;;;;;2.75;2.47;;;8.20;99.90;;;;;;4964883;28;20046;-89
2022/04/06 05:05:15;;;;;;;2.92;1.63;;;8.20;99.90;;;;;;4982523;28;20093;-88
2022/04/06 05:07:40;;;;;;;2.38;1.63;;;8.30;99.90;;;;;;4982604;28;20049;-88
2022/04/06 05:10:10;;;;;;;5.63;2.33;;;8.20;99.90;;;;;;4983120;28;20451;-90
2022/04/06 05:12:36;;;;;;;2.58;2.22;;;8.20;99.90;;;;;;4963667;28;20046;-90
2022/04/06 05:15:02;;;;;;;1.92;1.75;;;8.20;99.90;;;;;;4963234;28;20053;-90
2022/04/06 05:17:28;;;;;;;3.63;1.60;;;8.20;99.90;;;;;;4962552;28;20081;-91
2022/04/06 05:19:54;;;;;;;1.20;1.10;;;8.20;99.90;;;;;;4982140;28;20089;-91
2022/04/06 05:22:20;;;;;;;1.55;1.20;;;8.20;99.90;;;;;;4982722;28;20547;-93
2022/04/06 05:24:46;;;;;;;7.45;2.35;;;8.20;99.90;;;;;;4966259;28;20122;-92
2022/04/06 05:27:12;;;;;;;2.75;2.22;;;8.20;99.90;;;;;;4982141;28;20050;-85
2022/04/06 05:29:37;;;;;;;3.42;1.83;;;8.20;99.90;;;;;;4982109;28;20058;-90
2022/04/06 05:32:03;;;;;;;5.70;2.95;;;8.20;99.90;;;;;;4982339;28;20093;-93
2022/04/06 05:34:29;;;;;;;4.63;2.60;;;8.20;99.90;;;;;;4981933;28;20046;-93
2022/04/06 05:36:55;;;;;;;2.30;2.05;;;8.20;99.90;;;;;;4983059;28;20592;-94
2022/04/06 05:39:21;;;;;;;1.90;1.65;;;8.20;99.90;;;;;;4965444;28;20053;-93
2022/04/06 05:41:47;;;;;;;3.03;2.05;;;8.20;99.90;;;;;;4983912;28;20101;-96
2022/04/06 05:44:13;;;;;;;1.73;1.63;;;8.20;99.90;;;;;;4990548;28;20050;-94
2022/04/06 05:46:38;;;;;;;3.20;2.63;;;8.20;99.90;;;;;;4982859;28;20047;-80
2022/04/06 05:49:04;;;;;;;2.40;1.52;;;8.20;99.90;;;;;;4987792;28;20038;-94
2022/04/06 05:51:29;;;;;;;2.90;1.95;;;8.20;99.90;;;;;;4974109;28;20065;-93
2022/04/06 05:53:55;;;;;;;1.67;1.58;;;8.20;99.90;;;;;;4979386;28;20038;-85
2022/04/06 05:56:20;;;;;;;1.52;1.10;;;8.20;99.90;;;;;;4967126;28;20053;-86
2022/04/06 05:58:46;;;;;;;7.30;2.28;;;8.20;99.90;;;;;;4964449;28;20048;-91
2022/04/06 06:01:11;;;;;;;4.07;1.08;;;8.20;99.90;;;;;;4963290;28;20460;-93
2022/04/06 06:03:37;;;;;;;6.63;2.08;;;8.20;99.90;;;;;;4965726;28;20046;-84
2022/04/06 06:06:03;;;;;;;3.75;2.30;;;8.20;99.90;;;;;;4981558;28;20046;-90
2022/04/06 06:08:28;;;;;;;7.85;1.95;;;8.20;99.90;;;;;;4981073;28;20398;-92
2022/04/06 06:10:55;;;;;;;3.92;2.55;;;8.20;99.90;;;;;;4980338;28;20216;-91
2022/04/06 06:13:21;;;;;;;2.97;2.35;;;8.20;99.90;;;;;;4981245;28;20046;-91
2022/04/06 06:15:47;;;;;;;5.10;2.03;;;8.20;99.90;;;;;;4980095;28;20042;-92
2022/04/06 06:18:13;;;;;;;7.43;1.98;;;8.10;99.90;;;;;;4963954;28;20073;-91
2022/04/06 06:20:38;;;;;;;6.32;1.73;;;8.20;99.90;;;;;;4985269;28;20419;-91
2022/04/06 06:23:04;;;;;;;2.78;1.27;;;8.20;99.90;;;;;;4967164;28;20255;-91
2022/04/06 06:25:30;;;;;;;5.13;1.52;;;8.20;99.90;;;;;;4984587;28;20130;-91
2022/04/06 06:27:55;;;;;;;3.15;1.40;;;8.20;99.90;;;;;;4967685;28;20053;-86
2022/04/06 06:30:21;;;;;;;2.80;1.70;;;8.20;99.90;;;;;;4984788;28;20340;-94
2022/04/06 06:32:47;;;;;;;7.97;1.77;;;8.20;99.90;;;;;;4985734;28;20037;-93
2022/04/06 06:35:12;;;;;;;3.95;2.35;;;8.20;99.90;;;;;;4984945;28;20634;-94
2022/04/06 06:37:48;;;;;;;1.98;1.30;;;8.20;99.90;;;;;;4982245;28;20031;-94
2022/04/06 06:40:16;;;;;;;0.63;0.63;;;8.20;99.90;;;;;;4982661;28;20038;-94
2022/04/06 06:42:41;;;;;;;4.43;1.13;;;8.20;99.90;;;;;;4984896;28;20034;-94
2022/04/06 06:45:07;;;;;;;1.92;1.27;;;8.20;99.90;;;;;;4984668;28;20497;-94
2022/04/06 06:47:33;;;;;;;1.30;0.68;;;8.20;99.90;;;;;;4960752;28;20034;-84
2022/04/06 06:49:58;;;;;;;3.88;1.88;;;8.20;99.90;;;;;;4983806;28;20064;-93
2022/04/06 06:52:24;;;;;;;3.72;2.22;;;8.20;99.90;;;;;;4970076;28;20069;-88
2022/04/06 06:54:49;;;;;;;6.60;2.63;;;8.20;99.90;;;;;;4984027;28;20053;-85
2022/04/06 06:57:15;;;;;;;1.63;1.45;;;8.20;99.90;;;;;;4983358;28;20042;-88
2022/04/06 06:59:41;;;;;;;1.45;0.98;;;8.20;99.90;;;;;;4989778;28;20041;-93
2022/04/06 07:02:08;;;;;;;1.92;1.50;;;8.20;99.90;;;;;;4986279;28;20049;-93
2022/04/06 07:04:33;;;;;;;5.43;2.70;;;8.20;99.90;;;;;;4967853;28;20138;-86
2022/04/06 07:06:59;;;;;;;2.45;1.30;;;8.20;99.90;;;;;;4983669;28;20057;-85
2022/04/06 07:09:24;;;;;;;5.22;2.53;;;8.20;99.90;;;;;;4983049;28;20117;-84
2022/04/06 07:11:52;;;;;;;2.33;1.70;;;8.20;99.90;;;;;;4981728;28;20297;-84
2022/04/06 07:14:18;;;;;;;2.60;1.20;;;8.20;99.90;;;;;;4964581;28;20036;-84
2022/04/06 07:16:44;;;;;;;6.47;2.05;;;8.20;99.90;;;;;;4965711;28;20073;-84
2022/04/06 07:19:09;;;;;;;2.42;1.90;;;8.20;99.90;;;;;;4983016;28;20042;-84
2022/04/06 07:21:35;;;;;;;2.60;1.77;;;8.30;99.90;;;;;;4983789;28;20046;-84
2022/04/06 07:24:03;;;;;;;2.00;1.50;;;8.30;99.90;;;;;;4983306;28;20088;-85
2022/04/06 07:26:29;;;;;;;4.93;1.38;;;8.30;99.90;;;;;;4982783;28;20073;-84
2022/04/06 07:28:54;;;;;;;12.27;2.35;;;8.30;99.90;;;;;;4965314;28;20050;-84
2022/04/06 07:31:20;;;;;;;2.33;1.48;;;8.30;99.90;;;;;;4981250;28;20733;-85
2022/04/06 07:33:45;;;;;;;3.95;2.22;;;8.30;99.90;;;;;;4965318;28;20331;-85
2022/04/06 07:36:11;;;;;;;2.75;2.10;;;8.30;99.90;;;;;;4965537;28;20489;-86
2022/04/06 07:38:36;;;;;;;2.97;1.52;;;8.30;99.90;;;;;;4965562;28;20056;-85
2022/04/06 07:41:02;;;;;;;2.05;1.45;;;8.30;99.90;;;;;;4983112;28;20077;-85
2022/04/06 07:43:28;;;;;;;1.70;1.60;;;8.30;99.90;;;;;;4982201;28;20671;-85
2022/04/06 07:45:53;;;;;;;2.88;1.83;;;8.30;99.90;;;;;;4981773;28;20050;-85
2022/04/06 07:48:19;;;;;;;1.85;1.73;;;8.30;99.90;;;;;;4981154;28;20405;-85
2022/04/06 07:50:45;;;;;;;4.07;1.23;;;8.30;99.90;;;;;;4982569;28;20057;-84
2022/04/06 07:53:11;;;;;;;1.42;1.33;;;8.30;99.90;;;;;;4982740;28;20030;-84
2022/04/06 07:55:37;;;;;;;3.35;1.50;;;8.30;99.90;;;;;;4983085;28;20096;-84
2022/04/06 07:58:02;;;;;;;1.38;0.70;;;8.30;99.90;;;;;;4981273;28;20042;-84
2022/04/06 08:00:33;;;;;;;2.25;1.45;;;8.30;99.90;;;;;;4981987;28;20367;-84
2022/04/06 08:02:59;;;;;;;0.80;0.80;;;8.30;99.90;;;;;;4980756;28;20134;-84
2022/04/06 08:05:24;;;;;;;6.18;2.00;;;8.40;99.90;;;;;;4981071;28;20102;-84
2022/04/06 08:07:53;;;;;;;2.13;1.90;;;8.40;99.90;;;;;;4982799;28;20038;-84
2022/04/06 08:10:19;;;;;;;1.27;1.17;;;8.40;99.90;;;;;;4982018;28;20536;-85
2022/04/06 08:12:46;;;;;;;3.45;0.90;;;8.40;99.90;;;;;;4980818;28;20057;-85
2022/04/06 08:15:12;;;;;;;2.00;0.80;;;8.40;99.90;;;;;;4981330;28;20481;-85
2022/04/06 08:17:41;;;;;;;1.45;1.30;;;8.40;99.90;;;;;;4982235;28;20045;-84
2022/04/06 08:20:08;;;;;;;8.63;2.15;;;8.50;99.90;;;;;;4981278;28;20338;-84
2022/04/06 08:22:34;;;;;;;3.10;1.02;;;8.50;99.90;;;;;;4981109;28;20120;-83
2022/04/06 08:25:00;;;;;;;2.22;1.00;;;8.50;99.90;;;;;;4982594;28;20524;-84
2022/04/06 08:27:27;;;;;;;3.13;1.27;;;8.60;99.90;;;;;;4981788;28;20042;-84
2022/04/06 08:29:54;;;;;;;3.08;1.92;;;8.60;99.90;;;;;;4981709;28;20050;-84
2022/04/06 08:32:19;;;;;;;2.90;2.05;;;8.60;99.90;;;;;;4980104;28;20046;-84
2022/04/06 08:34:45;;;;;;;1.63;1.52;;;8.60;99.90;;;;;;4981841;28;20092;-84
2022/04/06 08:37:11;;;;;;;7.90;1.85;;;8.60;99.90;;;;;;4980442;28;20112;-85
2022/04/06 08:39:37;;;;;;;2.45;1.88;;;8.70;99.90;;;;;;4982201;28;20372;-83
2022/04/06 08:42:03;;;;;;;1.45;1.35;;;8.70;99.90;;;;;;4981752;28;20573;-84
2022/04/06 08:44:28;;;;;;;2.20;1.30;;;8.80;99.90;;;;;;4980957;28;20050;-81
2022/04/06 08:47:00;;;;;;;8.40;2.67;;;8.80;99.90;;;;;;4981433;28;20841;-84
2022/04/06 08:49:27;;;;;;;6.70;1.92;;;8.80;99.90;;;;;;4981514;28;20042;-84
2022/04/06 08:51:53;;;;;;;2.42;1.85;;;8.90;99.90;;;;;;4981845;28;20107;-84
2022/04/06 08:54:19;;;;;;;1.90;1.58;;;9.00;99.90;;;;;;4963400;28;20453;-84
2022/04/06 08:56:45;;;;;;;2.17;1.30;;;9.10;99.90;;;;;;4981910;28;20047;-84
2022/04/06 08:59:12;;;;;;;2.10;1.90;;;9.20;99.90;;;;;;4981140;28;20057;-85
2022/04/06 09:01:37;;;;;;;1.38;1.27;;;9.20;99.90;;;;;;4981063;28;20469;-84
2022/04/06 09:04:03;;;;;;;3.22;2.85;;;9.30;99.90;;;;;;4981564;28;20430;-84
2022/04/06 09:06:32;;;;;;;3.42;1.45;;;9.40;99.90;;;;;;4963633;28;20069;-84
2022/04/06 09:08:58;;;;;;;2.85;1.85;;;9.40;99.90;;;;;;4981399;28;20142;-84
2022/04/06 09:11:24;;;;;;;3.55;1.83;;;9.50;99.90;;;;;;4981499;28;20136;-85
2022/04/06 09:13:59;;;;;;;3.92;1.85;;;9.60;99.90;;;;;;4981342;28;20047;-84
2022/04/06 09:16:28;;;;;;;1.15;1.05;;;9.60;99.90;;;;;;4979826;28;20447;-84
2022/04/06 09:18:54;;;;;;;2.38;1.38;;;9.70;99.90;;;;;;4964125;28;20046;-84
2022/04/06 09:21:20;;;;;;;1.15;1.08;;;9.70;99.90;;;;;;4981343;28;20427;-84
2022/04/06 09:23:49;;;;;;;6.90;3.20;;;9.70;99.90;;;;;;4963960;28;20038;-84
2022/04/06 09:26:19;;;;;;;1.25;1.20;;;9.70;99.90;;;;;;4980869;28;20279;-84
2022/04/06 09:28:46;;;;;;;9.57;1.52;;;9.70;99.90;;;;;;4963599;28;20089;-84
2022/04/06 09:31:17;;;;;;;6.65;1.33;;;9.70;99.90;;;;;;4981239;28;20711;-79
2022/04/06 09:33:58;;;;;;;2.55;1.48;;;9.70;99.90;;;;;;4982061;28;20105;-82
2022/04/06 09:36:30;;;;;;;3.20;1.02;;;9.70;99.90;;;;;;4981912;28;20051;-87
2022/04/06 09:38:55;;;;;;;2.35;1.13;;;9.70;99.90;;;;;;4964462;28;20074;-91
2022/04/06 09:41:21;;;;;;;3.05;1.92;;;9.70;99.90;;;;;;4978854;28;20136;-91
2022/04/06 09:43:48;;;;;;;6.68;2.40;;;9.70;99.90;;;;;;4981575;28;20537;-86
2022/04/06 09:49:13;;;;;;;6.95;2.97;;;9.70;99.90;;;;;;4982563;28;20515;-86
2022/04/06 09:51:41;;;;;;;10.95;1.67;;;9.70;99.90;;;;;;4982408;28;20042;-86
2022/04/06 09:54:09;;;;;;;17.65;1.95;;;9.80;99.90;;;;;;4984919;28;20457;-86
2022/04/06 09:56:36;;;;;;;6.68;3.05;;;9.90;99.90;;;;;;4985574;28;20054;-86
2022/04/06 09:59:03;;;;;;;1.15;1.10;;;9.90;99.90;;;;;;4985832;28;20069;-87
2022/04/06 10:01:34;;;;;;;8.68;2.22;;;10.00;99.90;;;;;;4951026;28;20239;-87
2022/04/06 10:04:07;;;;;;;3.65;1.80;;;10.00;99.90;;;;;;4985301;28;20054;-87
2022/04/06 10:06:37;;;;;;;4.38;2.22;;;10.10;99.90;;;;;;4985161;28;20405;-87
2022/04/06 10:09:05;;;;;;;5.05;2.35;;;10.10;99.90;;;;;;4986174;28;20042;-86
2022/04/06 10:11:32;;;;;;;2.47;1.33;;;10.10;99.90;;;;;;4985890;28;20053;-87
2022/04/06 10:14:00;;;;;;;4.07;2.75;;;10.10;99.90;;;;;;4984640;28;20049;-87
2022/04/06 10:16:27;;;;;;;1.90;1.60;;;10.10;99.90;;;;;;4983610;28;20497;-86
2022/04/06 10:18:54;;;;;;;2.38;1.70;;;10.10;99.90;;;;;;4985737;28;20042;-87
2022/04/06 10:21:26;;;;;;;10.27;2.08;;;10.10;99.90;;;;;;4983535;28;20337;-87
2022/04/06 10:24:11;;;;;;;;;;;10.10;99.90;;;;;;4984557;28;20048;-87
2022/04/06 10:26:58;;;;;;;6.60;2.88;;;10.10;99.90;;;;;;4968611;28;19922;-85
2022/04/06 10:29:23;;;;;;;6.80;1.73;;;10.10;99.90;;;;;;4984174;28;20058;-87
2022/04/06 10:31:49;;;;;;;6.55;2.28;;;10.20;99.90;;;;;;4985424;28;20042;-87
2022/04/06 10:34:24;;;;;;;2.08;1.65;;;10.20;99.90;;;;;;4982965;28;20042;-87
2022/04/06 10:37:10;;;;;;;1.65;1.25;;;10.30;99.90;;;;;;4969343;28;20129;-87
2022/04/06 10:39:57;;;;;;;4.88;2.45;;;10.30;99.90;;;;;;4985703;28;20088;-87
2022/04/06 10:42:33;;;;;;;1.40;1.15;;;10.30;99.90;;;;;;4981352;28;20038;-88
2022/04/06 10:45:00;;;;;;;1.90;1.50;;;10.40;99.90;;;;;;4982018;28;20047;-84
2022/04/06 10:47:26;;;;;;;12.65;1.42;;;10.40;99.90;;;;;;4981722;28;20046;-85
2022/04/06 10:50:10;;;;;;;3.38;1.75;;;10.40;99.90;;;;;;4980421;28;20046;-84
2022/04/06 10:52:36;;;;;;;2.88;2.47;;;10.50;99.90;;;;;;4967878;28;20035;-86
2022/04/06 10:55:09;;;;;;;3.97;1.27;;;10.50;99.90;;;;;;4984243;28;20069;-88
2022/04/06 10:58:02;;;;;;;6.45;1.92;;;10.60;99.90;;;;;;4982823;28;20496;-85
2022/04/06 11:00:29;;;;;;;8.55;3.00;;;10.60;99.90;;;;;;4972490;28;20092;-83
2022/04/06 11:03:13;;;;;;;13.18;2.42;;;10.60;99.90;;;;;;4984431;28;20093;-83
2022/04/06 11:05:49;;;;;;;2.60;2.40;;;10.70;99.90;;;;;;4966343;28;20574;-81
2022/04/06 11:11:38;;;;;;;8.23;1.65;;;10.70;99.90;;;;;;4984652;28;20725;-88
2022/04/06 11:14:04;;;;;;;2.22;1.40;;;10.70;99.90;;;;;;4984634;28;20489;-86
2022/04/06 11:16:44;;;;;;;9.43;2.83;;;10.70;99.90;;;;;;4982392;28;20122;-91
2022/04/06 11:19:11;;;;;;;25.08;3.40;;;10.80;99.90;;;;;;4965085;28;20055;-87
2022/04/06 11:21:51;;;;;;;6.80;2.17;;;10.80;99.90;;;;;;4932236;28;20310;-85
2022/04/06 11:24:27;;;;;;;17.33;2.95;;;10.90;99.90;;;;;;4948024;28;20054;-85
2022/04/06 11:26:53;;;;;;;11.07;1.77;;;10.90;99.90;;;;;;4977601;28;20054;-94
2022/04/06 11:29:26;;;;;;;6.60;2.33;;;11.00;99.90;;;;;;4983412;28;20050;-92
2022/04/06 11:31:56;;;;;;;7.07;2.55;;;11.00;99.90;;;;;;4984407;28;20062;-86
2022/04/06 11:34:33;;;;;;;2.13;0.85;;;11.10;99.90;;;;;;4981645;28;20643;-84
2022/04/06 11:36:59;;;;;;;14.95;1.52;;;11.10;99.90;;;;;;4983730;28;20671;-83
2022/04/06 11:39:24;;;;;;;4.03;1.77;;;11.20;99.90;;;;;;4967441;28;20042;-95
2022/04/06 11:41:51;;;;;;;3.95;1.90;;;11.20;99.90;;;;;;4985627;28;20057;-86
2022/04/06 11:44:21;;;;;;;9.93;1.48;;;11.20;99.90;;;;;;4985154;28;20050;-94
2022/04/06 11:46:47;;;;;;;2.67;1.92;;;11.30;99.90;;;;;;4987379;28;20047;-94
2022/04/06 11:49:20;;;;;;;5.55;2.78;;;11.30;99.90;;;;;;4983771;28;20085;-86
2022/04/06 11:51:46;;;;;;;1.92;1.83;;;11.30;99.90;;;;;;4983284;28;20125;-89
2022/04/06 11:54:12;;;;;;;4.45;2.17;;;11.30;99.90;;;;;;4983482;28;20501;-87
2022/04/06 11:56:37;;;;;;;1.55;1.45;;;11.30;99.90;;;;;;4984439;28;20046;-87
2022/04/06 11:59:10;;;;;;;11.85;2.20;;;11.30;99.90;;;;;;4984838;28;20050;-94
2022/04/06 12:01:43;;;;;;;3.15;1.75;;;11.30;99.90;;;;;;4980393;28;20034;-84
2022/04/06 12:04:21;;;;;;;2.65;1.77;;;11.30;99.90;;;;;;4962883;28;20058;-81
2022/04/06 12:06:48;;;;;;;3.92;1.92;;;11.20;99.90;;;;;;4982534;28;20065;-85
2022/04/06 12:09:14;;;;;;;4.80;2.35;;;11.20;99.90;;;;;;4982580;28;20038;-87
2022/04/06 12:11:39;;;;;;;2.60;1.65;;;11.20;99.90;;;;;;4984149;28;20042;-90
2022/04/06 12:14:11;;;;;;;4.95;2.50;;;11.20;99.90;;;;;;4965349;28;20054;-85
2022/04/06 12:16:41;;;;;;;2.03;1.83;;;11.20;99.90;;;;;;4984128;28;20713;-91
2022/04/06 12:19:13;;;;;;;5.13;2.50;;;11.20;99.90;;;;;;4968410;28;20653;-95
2022/04/06 12:21:43;;;;;;;3.95;2.67;;;11.20;99.90;;;;;;4968394;28;20456;-89
2022/04/06 12:24:11;;;;;;;11.50;1.77;;;11.20;99.90;;;;;;4983981;28;20053;-90
2022/04/06 12:26:51;;;;;;;7.72;2.28;;;11.20;99.90;;;;;;4968457;28;20057;-84
2022/04/06 12:29:17;;;;;;;2.80;2.03;;;11.20;99.90;;;;;;4982464;28;20097;-83
2022/04/06 12:31:44;;;;;;;3.40;1.48;;;11.20;99.90;;;;;;4984149;28;20082;-96
2022/04/06 12:34:30;;;;;;;1.48;1.38;;;11.20;99.90;;;;;;4984601;28;20484;-89
2022/04/06 12:36:56;;;;;;;4.53;2.53;;;11.20;99.90;;;;;;4970621;28;20085;-89
2022/04/06 12:39:22;;;;;;;17.08;2.83;;;11.20;99.90;;;;;;4982519;28;20089;-87
2022/04/06 12:42:04;;;;;;;15.70;2.08;;;11.10;99.90;;;;;;4980509;28;20066;-89
2022/04/06 12:44:31;;;;;;;;;;;11.20;99.90;;;;;;4963819;28;20039;-86
2022/04/06 12:46:57;;;;;;;12.73;3.38;;;11.20;99.90;;;;;;4967087;28;19929;-90
2022/04/06 12:49:36;;;;;;;4.65;2.10;;;11.20;99.90;;;;;;4973617;28;20060;-90
2022/04/06 12:52:07;;;;;;;15.77;2.47;;;11.20;99.90;;;;;;4980882;28;20575;-91
2022/04/06 12:54:33;;;;;;;2.50;2.30;;;11.20;99.90;;;;;;4980759;28;20092;-88
2022/04/06 12:57:13;;;;;;;3.67;1.60;;;11.10;99.90;;;;;;4983465;28;20062;-84
2022/04/06 12:59:45;;;;;;;7.10;2.60;;;11.10;99.90;;;;;;4966200;28;20046;-85
2022/04/06 13:02:38;;;;;;;3.50;1.88;;;11.10;99.90;;;;;;4982296;28;20072;-87
2022/04/06 13:05:12;;;;;;;9.23;3.17;;;11.10;99.90;;;;;;4961829;28;20114;-88